Time;durP1;ratioP1;P1;durP2;ratioP2;P2;SDS_P1;SDS_P2;PMS_P1;PMS_P2;Temp;Humidity;BMP_temperature;BMP_pressure;BME280_temperature;BME280_humidity;BME280_pressure;Samples;Min_cycle;Max_cycle;Signal;HPM_P1;HPM_P2
2021/10/02 00:36:05;;;;;;;7.47;5.80;;;8.90;99.90;;;;;;5051971;28;20374;-88
2021/10/02 00:46:52;;;;;;;14.63;6.57;;;8.80;99.90;;;;;;5058345;28;20864;-87
2021/10/02 00:49:18;;;;;;;6.28;5.68;;;8.80;99.90;;;;;;5046003;28;20398;-88
2021/10/02 00:51:45;;;;;;;7.30;6.18;;;8.80;99.90;;;;;;5042562;28;20457;-88
2021/10/02 00:54:11;;;;;;;6.78;6.18;;;8.70;99.90;;;;;;5040167;28;20390;-87
2021/10/02 00:56:36;;;;;;;7.82;6.15;;;8.70;99.90;;;;;;5034945;28;20391;-87
2021/10/02 00:59:02;;;;;;;7.40;5.85;;;8.60;99.90;;;;;;5031925;28;20368;-87
2021/10/02 01:01:51;;;;;;;5.85;5.28;;;8.60;99.90;;;;;;5032383;28;20407;-87
2021/10/02 01:04:44;;;;;;;7.35;6.05;;;8.50;99.90;;;;;;5031990;28;20399;-87
2021/10/02 01:07:39;;;;;;;7.10;6.40;;;8.50;99.90;;;;;;5032032;28;20388;-87
2021/10/02 01:10:29;;;;;;;6.45;5.85;;;8.50;99.90;;;;;;5032177;28;20462;-87
2021/10/02 01:13:18;;;;;;;7.00;6.30;;;8.50;99.90;;;;;;5031945;28;20429;-87
2021/10/02 01:16:19;;;;;;;;;;;;;;;;;;;;;
2021/10/02 01:19:00;;;;;;;9.70;6.63;;;8.50;99.90;;;;;;5053499;28;20858;-87
2021/10/02 01:21:51;;;;;;;7.57;6.63;;;8.50;99.90;;;;;;5054183;28;20394;-87
2021/10/02 01:24:32;;;;;;;7.90;6.55;;;8.50;99.90;;;;;;5036121;28;20380;-87
2021/10/02 01:27:11;;;;;;;6.88;6.28;;;8.50;99.90;;;;;;5054056;28;20439;-87
2021/10/02 01:29:39;;;;;;;9.05;6.55;;;8.50;99.90;;;;;;5035782;28;20435;-87
2021/10/02 01:32:16;;;;;;;7.60;6.90;;;8.40;99.90;;;;;;5053716;28;20387;-85
2021/10/02 01:35:06;;;;;;;8.77;6.82;;;8.40;99.90;;;;;;5053704;28;20383;-88
2021/10/02 01:48:44;;;;;;;7.90;6.47;;;8.20;99.90;;;;;;5053384;28;20787;-87
2021/10/02 01:51:12;;;;;;;7.60;6.72;;;8.20;99.90;;;;;;5035389;28;20445;-88
2021/10/02 01:53:39;;;;;;;7.55;6.82;;;8.20;99.90;;;;;;5053041;28;20433;-88
2021/10/02 01:56:07;;;;;;;7.93;6.53;;;8.20;99.90;;;;;;5035642;28;20831;-87
2021/10/02 01:58:35;;;;;;;7.40;6.60;;;8.20;99.90;;;;;;5053064;28;20384;-88
2021/10/02 02:01:04;;;;;;;7.17;6.47;;;8.20;99.90;;;;;;5035207;28;20396;-87
2021/10/02 02:03:33;;;;;;;9.25;6.60;;;8.30;99.90;;;;;;5035300;28;20426;-87
2021/10/02 02:06:01;;;;;;;7.60;6.80;;;8.30;99.90;;;;;;5035138;28;20368;-88
2021/10/02 02:08:28;;;;;;;8.95;6.63;;;8.30;99.90;;;;;;5035204;28;20784;-87
2021/10/02 02:10:55;;;;;;;8.90;6.97;;;8.40;99.90;;;;;;5034663;28;20486;-88
2021/10/02 02:13:23;;;;;;;8.18;6.68;;;8.30;99.90;;;;;;5035419;28;20383;-87
2021/10/02 02:15:50;;;;;;;7.25;6.55;;;8.40;99.90;;;;;;5035150;28;20434;-87
2021/10/02 02:18:20;;;;;;;7.15;6.45;;;8.40;99.90;;;;;;5035030;28;20387;-87
2021/10/02 02:20:56;;;;;;;7.20;6.60;;;8.50;99.90;;;;;;5034906;28;20380;-87
2021/10/02 02:23:25;;;;;;;7.45;6.72;;;8.50;99.90;;;;;;5035014;28;20396;-87
2021/10/02 02:25:51;;;;;;;8.60;7.35;;;8.50;99.90;;;;;;5054238;28;20372;-86
2021/10/02 02:28:18;;;;;;;8.32;7.53;;;8.60;99.90;;;;;;5034793;28;20387;-87
2021/10/02 02:30:44;;;;;;;8.73;7.17;;;8.60;99.90;;;;;;5034684;28;20403;-88
2021/10/02 02:33:09;;;;;;;7.57;6.90;;;8.60;99.90;;;;;;5034577;28;20380;-88
2021/10/02 02:35:35;;;;;;;8.27;6.90;;;8.60;99.90;;;;;;5052598;28;20379;-87
2021/10/02 02:38:02;;;;;;;8.03;7.00;;;8.70;99.90;;;;;;5034677;28;20372;-89
2021/10/02 02:40:28;;;;;;;9.20;7.55;;;8.70;99.90;;;;;;5034636;28;20483;-88
2021/10/02 02:42:54;;;;;;;8.95;7.22;;;8.80;99.90;;;;;;5034205;28;20400;-87
2021/10/02 02:45:23;;;;;;;7.10;6.40;;;8.80;99.90;;;;;;5052530;28;20392;-88
2021/10/02 02:47:53;;;;;;;9.00;6.30;;;8.90;99.90;;;;;;5051446;28;20392;-87
2021/10/02 02:51:10;;;;;;;7.30;6.60;;;8.90;99.90;;;;;;5034564;28;20439;-88
2021/10/02 02:53:51;;;;;;;7.28;6.55;;;9.00;99.90;;;;;;5001715;28;20393;-88
2021/10/02 02:59:40;;;;;;;20.17;8.90;;;8.90;99.90;;;;;;5048368;28;20756;-88
2021/10/02 03:02:18;;;;;;;7.90;6.70;;;9.00;99.90;;;;;;5034539;28;20384;-88
2021/10/02 03:04:45;;;;;;;12.23;6.85;;;8.90;99.90;;;;;;5034278;28;20471;-88
2021/10/02 03:07:37;;;;;;;7.60;6.20;;;9.00;99.90;;;;;;5051526;28;20375;-89
2021/10/02 03:10:10;;;;;;;13.07;7.32;;;9.10;99.90;;;;;;5034112;28;20415;-89
2021/10/02 03:12:41;;;;;;;9.73;6.65;;;9.10;99.90;;;;;;5034275;28;20383;-88
2021/10/02 03:15:32;;;;;;;8.63;6.75;;;9.20;99.90;;;;;;5033332;28;20810;-87
2021/10/02 03:17:58;;;;;;;9.13;6.60;;;9.20;99.90;;;;;;5034192;28;20568;-88
2021/10/02 03:20:37;;;;;;;8.23;6.60;;;9.30;99.90;;;;;;5052083;28;20842;-88
2021/10/02 03:23:08;;;;;;;9.82;6.80;;;9.20;99.90;;;;;;5052300;28;20420;-89
2021/10/02 03:25:37;;;;;;;7.72;6.40;;;9.30;99.90;;;;;;5033848;28;20376;-88
2021/10/02 03:28:04;;;;;;;7.53;6.38;;;9.30;99.90;;;;;;5033578;28;20376;-88
2021/10/02 03:30:31;;;;;;;6.50;5.90;;;9.30;99.90;;;;;;5033838;28;20426;-87
2021/10/02 03:33:05;;;;;;;7.05;6.28;;;9.40;99.90;;;;;;5033626;28;20375;-89
2021/10/02 03:35:31;;;;;;;6.82;5.93;;;9.40;99.90;;;;;;5033750;28;20900;-87
2021/10/02 03:38:43;;;;;;;7.88;6.10;;;9.40;99.90;;;;;;5032625;28;20405;-88
2021/10/02 03:41:09;;;;;;;7.80;5.90;;;9.30;99.90;;;;;;5024493;28;20371;-88
2021/10/02 03:43:37;;;;;;;6.38;5.80;;;9.40;99.90;;;;;;5033199;28;20380;-88
2021/10/02 03:46:03;;;;;;;6.95;5.90;;;9.40;99.90;;;;;;5033114;28;20372;-89
2021/10/02 03:48:30;;;;;;;6.82;6.20;;;9.50;99.90;;;;;;5032911;28;20398;-88
2021/10/02 03:50:58;;;;;;;10.30;6.37;;;9.50;99.90;;;;;;5032934;28;20683;-87
2021/10/02 03:53:31;;;;;;;8.05;5.70;;;9.50;99.90;;;;;;5033271;28;20386;-88
2021/10/02 03:55:59;;;;;;;7.68;6.03;;;9.60;99.90;;;;;;5032754;28;20777;-88
2021/10/02 03:58:25;;;;;;;6.43;5.78;;;9.60;99.90;;;;;;5033024;28;20388;-88
2021/10/02 04:00:50;;;;;;;7.25;6.10;;;9.60;99.90;;;;;;5033218;28;20380;-87
2021/10/02 04:03:16;;;;;;;6.00;5.40;;;9.70;99.90;;;;;;5050983;28;20383;-87
2021/10/02 04:05:42;;;;;;;6.40;5.80;;;9.70;99.90;;;;;;5033177;28;20384;-87
2021/10/02 04:08:07;;;;;;;7.15;5.93;;;9.70;99.90;;;;;;5032804;28;20772;-88
2021/10/02 04:10:33;;;;;;;6.10;5.50;;;9.80;99.90;;;;;;5032782;28;20406;-87
2021/10/02 04:12:59;;;;;;;7.63;5.67;;;9.80;99.90;;;;;;5050566;28;20946;-88
2021/10/02 04:15:25;;;;;;;6.45;5.53;;;9.80;99.90;;;;;;5038155;28;20374;-87
2021/10/02 04:17:53;;;;;;;7.97;5.85;;;9.90;99.90;;;;;;5032986;28;20423;-87
2021/10/02 04:20:19;;;;;;;5.90;5.32;;;9.80;99.90;;;;;;5033393;28;20916;-88
2021/10/02 04:22:44;;;;;;;6.63;5.47;;;9.80;99.90;;;;;;5032866;28;20380;-87
2021/10/02 04:25:10;;;;;;;6.10;5.50;;;9.80;99.90;;;;;;5033101;28;20422;-87
2021/10/02 04:27:36;;;;;;;5.82;5.10;;;9.80;99.90;;;;;;5032530;28;20379;-88
2021/10/02 04:30:02;;;;;;;5.60;4.80;;;9.80;99.90;;;;;;5031954;28;20462;-88
2021/10/02 04:32:28;;;;;;;5.75;5.25;;;9.70;99.90;;;;;;5032796;28;20449;-88
2021/10/02 04:34:53;;;;;;;5.63;5.13;;;9.70;99.90;;;;;;5032815;28;20956;-86
2021/10/02 04:37:19;;;;;;;5.90;5.30;;;9.70;99.90;;;;;;5050237;28;20410;-88
2021/10/02 04:39:44;;;;;;;6.28;5.20;;;9.60;99.90;;;;;;5032623;28;20390;-87
2021/10/02 04:42:10;;;;;;;6.43;5.80;;;9.60;99.90;;;;;;5032506;28;20889;-87
2021/10/02 04:45:00;;;;;;;6.80;6.10;;;9.60;99.90;;;;;;5050122;28;20379;-87
2021/10/02 04:47:44;;;;;;;11.63;5.80;;;9.50;99.90;;;;;;5032382;28;20423;-88
2021/10/02 04:50:15;;;;;;;9.00;5.55;;;9.50;99.90;;;;;;5031415;28;20410;-88
2021/10/02 04:52:41;;;;;;;5.93;5.40;;;9.50;99.90;;;;;;5050272;28;20379;-88
2021/10/02 04:55:07;;;;;;;6.90;5.80;;;9.50;99.90;;;;;;5032156;28;20407;-88
2021/10/02 04:57:33;;;;;;;6.57;5.10;;;9.50;99.90;;;;;;5032573;28;20458;-88
2021/10/02 05:00:01;;;;;;;5.97;5.47;;;9.50;99.90;;;;;;5032285;28;20897;-88
2021/10/02 05:02:26;;;;;;;6.57;5.67;;;9.50;99.90;;;;;;5032379;28;20375;-87
2021/10/02 05:04:52;;;;;;;5.97;5.33;;;9.40;99.90;;;;;;5032486;28;20715;-88
2021/10/02 05:10:27;;;;;;;6.80;6.10;;;9.40;99.90;;;;;;5045735;28;20415;-88
2021/10/02 05:12:56;;;;;;;6.27;5.77;;;9.40;99.90;;;;;;5032162;28;20376;-89
2021/10/02 05:15:21;;;;;;;6.88;5.45;;;9.40;99.90;;;;;;5031468;28;20379;-87
2021/10/02 05:17:47;;;;;;;8.27;6.40;;;9.40;99.90;;;;;;5031704;28;20383;-87
2021/10/02 05:20:12;;;;;;;6.80;6.00;;;9.40;99.90;;;;;;5032277;28;20935;-88
2021/10/02 05:22:38;;;;;;;6.57;5.90;;;9.40;99.90;;;;;;5049866;28;20382;-87
2021/10/02 05:25:04;;;;;;;7.53;5.63;;;9.30;99.90;;;;;;5031880;28;20429;-88
2021/10/02 05:27:29;;;;;;;9.80;6.13;;;9.40;99.90;;;;;;5032210;28;20407;-88
2021/10/02 05:29:55;;;;;;;7.57;5.53;;;9.40;99.90;;;;;;5049451;28;20427;-87
2021/10/02 05:32:21;;;;;;;8.00;6.07;;;9.40;99.90;;;;;;5031850;28;20948;-87
2021/10/02 05:34:46;;;;;;;8.50;5.97;;;9.40;99.90;;;;;;5032367;28;20380;-87
2021/10/02 05:37:12;;;;;;;6.55;5.85;;;9.40;99.90;;;;;;5031990;28;20415;-88
2021/10/02 05:39:37;;;;;;;6.63;5.93;;;9.40;99.90;;;;;;5049897;28;20368;-87
2021/10/02 05:42:03;;;;;;;8.13;5.47;;;9.50;99.90;;;;;;5031831;28;20873;-87
2021/10/02 05:44:30;;;;;;;6.87;5.37;;;9.50;99.90;;;;;;5032100;28;20387;-87
2021/10/02 05:47:01;;;;;;;7.13;6.18;;;9.50;99.90;;;;;;5031301;28;20383;-88
2021/10/02 05:49:27;;;;;;;7.85;5.88;;;9.60;99.90;;;;;;5031723;28;20403;-87
2021/10/02 05:51:53;;;;;;;10.07;6.22;;;9.60;99.90;;;;;;5032009;28;20707;-88
2021/10/02 05:54:18;;;;;;;9.82;5.90;;;9.70;99.90;;;;;;5031636;28;20865;-87
2021/10/02 05:56:44;;;;;;;6.13;5.63;;;9.80;99.90;;;;;;5031821;28;20391;-88
2021/10/02 05:59:10;;;;;;;7.63;5.50;;;9.90;99.90;;;;;;5031532;28;20932;-88
2021/10/02 06:01:35;;;;;;;7.53;5.13;;;9.90;99.90;;;;;;5038416;28;20368;-88
2021/10/02 06:04:01;;;;;;;6.50;5.80;;;10.00;99.90;;;;;;5053145;28;20403;-87
2021/10/02 06:06:27;;;;;;;8.93;6.03;;;10.00;99.90;;;;;;5035886;28;20383;-88
2021/10/02 06:08:52;;;;;;;6.33;5.70;;;10.10;99.90;;;;;;5035108;28;20392;-87
2021/10/02 06:11:18;;;;;;;7.25;5.57;;;10.10;99.90;;;;;;5053994;28;20857;-87
2021/10/02 06:13:44;;;;;;;6.40;5.78;;;10.10;99.90;;;;;;5034864;28;20376;-87
2021/10/02 06:16:10;;;;;;;6.38;5.57;;;10.20;99.90;;;;;;5035054;28;20766;-87
2021/10/02 06:18:36;;;;;;;10.15;8.93;;;10.30;99.90;;;;;;5035058;28;20414;-88
2021/10/02 06:21:01;;;;;;;11.48;8.35;;;10.30;99.90;;;;;;5034693;28;20380;-87
2021/10/02 06:23:27;;;;;;;9.27;7.50;;;10.40;99.90;;;;;;5053191;28;20383;-87
2021/10/02 06:25:54;;;;;;;7.63;6.40;;;10.40;99.90;;;;;;5035333;28;20406;-87
2021/10/02 06:28:20;;;;;;;19.45;6.97;;;10.60;99.90;;;;;;5034959;28;20360;-87
2021/10/02 06:30:46;;;;;;;10.32;6.53;;;10.70;99.90;;;;;;5034783;28;20411;-87
2021/10/02 06:33:11;;;;;;;8.27;6.07;;;10.80;99.90;;;;;;5034388;28;20376;-88
2021/10/02 06:35:37;;;;;;;6.28;5.68;;;10.80;99.90;;;;;;5034878;28;20382;-88
2021/10/02 06:38:02;;;;;;;6.23;5.57;;;10.90;99.90;;;;;;5034689;28;20816;-89
2021/10/02 06:40:29;;;;;;;8.40;5.55;;;11.00;99.90;;;;;;5052323;28;20451;-89
2021/10/02 06:42:55;;;;;;;6.35;5.43;;;11.10;99.90;;;;;;5034619;28;20737;-88
2021/10/02 06:45:21;;;;;;;6.65;5.40;;;11.20;99.90;;;;;;5034154;28;20379;-88
2021/10/02 06:47:47;;;;;;;6.53;5.10;;;11.50;99.90;;;;;;5034140;28;20405;-87
2021/10/02 06:50:12;;;;;;;7.37;5.00;;;11.60;99.90;;;;;;5034333;28;20840;-87
2021/10/02 06:52:38;;;;;;;7.13;5.10;;;11.70;99.90;;;;;;5034361;28;20478;-87
2021/10/02 06:55:07;;;;;;;10.27;5.22;;;11.90;99.90;;;;;;5034215;28;20766;-87
2021/10/02 06:57:33;;;;;;;7.00;5.60;;;12.10;99.90;;;;;;5052191;28;20865;-88
2021/10/02 06:59:59;;;;;;;9.25;5.90;;;12.20;99.90;;;;;;5051842;28;20372;-88
2021/10/02 07:02:27;;;;;;;7.47;5.32;;;12.50;99.90;;;;;;5034384;28;20384;-89
2021/10/02 07:04:55;;;;;;;8.20;5.47;;;12.60;99.90;;;;;;5034269;28;20399;-88
2021/10/02 07:07:26;;;;;;;7.88;5.00;;;12.70;99.90;;;;;;5034153;28;20770;-87
2021/10/02 07:09:51;;;;;;;7.87;5.23;;;12.90;99.90;;;;;;5051797;28;20395;-87
2021/10/02 07:12:26;;;;;;;7.60;4.93;;;13.10;99.90;;;;;;5033717;28;20384;-86
2021/10/02 07:15:01;;;;;;;9.18;5.07;;;13.20;99.90;;;;;;5033977;28;20474;-88
2021/10/02 07:17:26;;;;;;;8.20;5.10;;;13.40;99.90;;;;;;5051877;28;20395;-87
2021/10/02 07:19:52;;;;;;;9.30;5.33;;;13.50;99.90;;;;;;5034026;28;20376;-87
2021/10/02 07:22:38;;;;;;;6.75;4.82;;;13.50;99.90;;;;;;5033825;28;20881;-88
2021/10/02 07:25:07;;;;;;;6.47;5.35;;;13.60;99.90;;;;;;5033984;28;20457;-88
2021/10/02 07:27:33;;;;;;;7.83;5.67;;;13.60;99.90;;;;;;5052066;28;20378;-88
2021/10/02 07:29:58;;;;;;;11.27;7.30;;;13.50;99.90;;;;;;5033616;28;20387;-88
2021/10/02 07:32:25;;;;;;;9.02;7.18;;;13.60;99.90;;;;;;5033857;28;20387;-89
2021/10/02 07:34:52;;;;;;;9.40;6.05;;;13.70;99.90;;;;;;5034003;28;20383;-89
2021/10/02 07:37:18;;;;;;;8.63;5.50;;;13.80;99.90;;;;;;5051133;28;20475;-87
2021/10/02 07:39:45;;;;;;;6.35;4.75;;;13.90;99.90;;;;;;5033544;28;20386;-88
2021/10/02 07:42:12;;;;;;;7.35;4.68;;;14.10;99.90;;;;;;5033642;28;20384;-87
2021/10/02 07:44:41;;;;;;;7.20;4.90;;;14.10;99.90;;;;;;5033179;28;20376;-87
2021/10/02 07:47:11;;;;;;;7.25;4.63;;;14.10;99.90;;;;;;5050927;28;20433;-88
2021/10/02 07:49:37;;;;;;;7.18;4.05;;;14.20;99.90;;;;;;5038316;28;20419;-87
2021/10/02 07:52:12;;;;;;;6.47;5.22;;;14.30;99.90;;;;;;5034256;28;20459;-88
2021/10/02 07:54:41;;;;;;;9.93;5.38;;;14.40;99.90;;;;;;5033491;28;20879;-88
2021/10/02 07:57:10;;;;;;;5.60;4.88;;;14.50;99.90;;;;;;5033101;28;20402;-88
2021/10/02 07:59:51;;;;;;;5.95;4.30;;;14.60;99.90;;;;;;5033120;28;20380;-87
2021/10/02 08:02:19;;;;;;;10.88;4.70;;;14.80;99.90;;;;;;5050821;28;20384;-88
2021/10/02 08:04:46;;;;;;;9.77;4.35;;;14.80;99.90;;;;;;5050543;28;20386;-88
2021/10/02 08:07:15;;;;;;;10.75;4.72;;;14.90;99.90;;;;;;5033233;28;20414;-87
2021/10/02 08:09:42;;;;;;;7.57;4.30;;;15.20;99.90;;;;;;5033065;28;20392;-88
2021/10/02 08:12:09;;;;;;;5.15;3.88;;;15.20;99.90;;;;;;5051082;28;20404;-87
2021/10/02 08:14:34;;;;;;;8.10;4.38;;;15.50;99.90;;;;;;5033602;28;20785;-87
2021/10/02 08:17:00;;;;;;;8.80;4.27;;;15.90;99.90;;;;;;5032831;28;20379;-87
2021/10/02 08:19:29;;;;;;;6.90;3.88;;;16.20;99.90;;;;;;5033876;28;20493;-88
2021/10/02 08:21:56;;;;;;;6.82;4.00;;;16.30;99.90;;;;;;5033987;28;20395;-88
2021/10/02 08:24:23;;;;;;;7.28;3.83;;;16.70;99.90;;;;;;5033600;28;20384;-88
2021/10/02 08:26:52;;;;;;;7.78;3.92;;;16.90;99.90;;;;;;5033811;28;20416;-86
2021/10/02 08:29:19;;;;;;;6.68;3.92;;;17.10;99.90;;;;;;5051459;28;20410;-88
2021/10/02 08:31:44;;;;;;;5.32;3.63;;;17.10;99.90;;;;;;5051186;28;20379;-89
2021/10/02 08:34:10;;;;;;;7.00;3.40;;;17.10;99.90;;;;;;5032859;28;20924;-88
2021/10/02 08:36:35;;;;;;;10.73;4.57;;;17.00;99.90;;;;;;5051117;28;20734;-87
2021/10/02 08:39:01;;;;;;;6.63;3.45;;;16.80;99.90;;;;;;5032929;28;20444;-87
2021/10/02 08:41:50;;;;;;;6.10;3.40;;;16.70;99.90;;;;;;5033093;28;20379;-87
2021/10/02 08:44:20;;;;;;;10.70;3.90;;;16.70;99.90;;;;;;5032972;28;20488;-88
2021/10/02 08:46:46;;;;;;;6.55;3.47;;;16.80;99.90;;;;;;5032792;28;20372;-89
2021/10/02 08:49:38;;;;;;;6.30;4.10;;;16.90;99.90;;;;;;5050241;28;20383;-88
2021/10/02 08:52:09;;;;;;;13.32;6.60;;;17.00;99.90;;;;;;5030430;28;20384;-88
2021/10/02 08:54:40;;;;;;;7.65;4.25;;;17.10;99.90;;;;;;5032752;28;20422;-85
2021/10/02 08:57:09;;;;;;;9.05;3.33;;;17.10;99.90;;;;;;5033608;28;20376;-86
2021/10/02 08:59:44;;;;;;;7.32;3.45;;;17.10;99.90;;;;;;5051551;28;20546;-87
2021/10/02 09:02:13;;;;;;;5.20;3.22;;;17.10;99.90;;;;;;5033342;28;20510;-87
2021/10/02 09:04:40;;;;;;;7.75;3.50;;;17.20;99.90;;;;;;5051134;28;20829;-87
2021/10/02 09:07:15;;;;;;;4.70;3.10;;;17.30;99.90;;;;;;5033509;28;20912;-87
2021/10/02 09:09:43;;;;;;;4.82;3.00;;;17.40;99.90;;;;;;5033745;28;20773;-86
2021/10/02 09:12:10;;;;;;;3.65;2.80;;;17.50;99.90;;;;;;5032828;28;20455;-85
2021/10/02 09:14:47;;;;;;;3.97;2.50;;;17.80;99.90;;;;;;5032645;28;20376;-87
2021/10/02 09:17:16;;;;;;;4.45;2.80;;;17.80;99.90;;;;;;5050341;28;20383;-87
2021/10/02 09:19:42;;;;;;;9.13;3.78;;;17.90;99.90;;;;;;5032823;28;20784;-87
2021/10/02 09:22:11;;;;;;;4.23;2.93;;;18.00;99.90;;;;;;5049761;28;20388;-86
2021/10/02 09:24:47;;;;;;;6.35;2.75;;;18.20;99.90;;;;;;5034441;28;20391;-87
2021/10/02 09:27:25;;;;;;;5.25;3.22;;;18.20;99.90;;;;;;5033111;28;20446;-87
2021/10/02 09:29:56;;;;;;;5.90;3.20;;;18.20;99.90;;;;;;5032703;28;20402;-85
2021/10/02 09:32:36;;;;;;;8.20;3.08;;;18.30;99.90;;;;;;5033294;28;20388;-87
2021/10/02 09:35:15;;;;;;;4.18;2.90;;;18.40;99.90;;;;;;5053237;28;20367;-88
2021/10/02 09:37:43;;;;;;;7.55;3.28;;;18.50;99.90;;;;;;5036929;28;20411;-88
2021/10/02 09:40:18;;;;;;;8.40;3.17;;;18.50;99.90;;;;;;5036746;28;20380;-87
2021/10/02 09:42:53;;;;;;;7.13;3.10;;;18.50;99.90;;;;;;5038034;28;20392;-88
2021/10/02 09:45:21;;;;;;;8.15;3.30;;;18.50;99.90;;;;;;5037412;28;20383;-87
2021/10/02 09:48:00;;;;;;;4.00;2.80;;;18.50;99.90;;;;;;5037264;28;20407;-88
2021/10/02 09:50:28;;;;;;;5.85;3.00;;;18.60;99.90;;;;;;5036004;28;20411;-88
2021/10/02 09:53:03;;;;;;;4.32;2.90;;;18.60;99.90;;;;;;5036871;28;20399;-87
2021/10/02 09:55:36;;;;;;;4.82;2.80;;;18.70;99.90;;;;;;5055318;28;20418;-88
2021/10/02 09:58:10;;;;;;;7.33;3.13;;;18.80;99.90;;;;;;5036556;28;20470;-88
2021/10/02 10:00:50;;;;;;;7.07;3.13;;;18.90;99.90;;;;;;5036525;28;20923;-88
2021/10/02 10:03:18;;;;;;;5.28;3.03;;;19.10;99.90;;;;;;5035532;28;20396;-87
2021/10/02 10:05:49;;;;;;;4.43;3.13;;;19.10;99.90;;;;;;5054719;28;20368;-86
2021/10/02 10:08:31;;;;;;;6.53;3.03;;;19.10;99.90;;;;;;5035689;28;20384;-88
2021/10/02 10:11:42;;;;;;;6.25;2.90;;;19.20;99.90;;;;;;5038317;28;20424;-88
2021/10/02 10:14:20;;;;;;;6.43;3.28;;;19.20;99.90;;;;;;5072750;28;20387;-88
2021/10/02 10:16:45;;;;;;;5.93;3.15;;;19.30;99.90;;;;;;5050056;28;20397;-86
2021/10/02 10:19:18;;;;;;;7.90;2.92;;;19.30;99.90;;;;;;5044182;28;20382;-86
2021/10/02 10:21:44;;;;;;;5.60;2.90;;;19.30;99.90;;;;;;5063928;28;20387;-87
2021/10/02 10:24:47;;;;;;;5.00;3.00;;;19.30;99.90;;;;;;5047578;28;20384;-86
2021/10/02 10:27:13;;;;;;;5.70;3.40;;;19.10;99.90;;;;;;5021778;28;20468;-87
2021/10/02 10:30:03;;;;;;;4.93;2.60;;;19.20;99.90;;;;;;5044847;28;20833;-88
2021/10/02 10:32:28;;;;;;;15.93;3.42;;;19.10;99.90;;;;;;5045394;28;20414;-86
2021/10/02 10:34:54;;;;;;;5.00;2.63;;;19.20;99.90;;;;;;5060914;28;20388;-88
2021/10/02 10:37:26;;;;;;;4.10;2.70;;;19.30;99.90;;;;;;5047649;28;20386;-87
2021/10/02 10:39:57;;;;;;;5.40;2.73;;;19.40;99.90;;;;;;5044723;28;20394;-88
2021/10/02 10:42:30;;;;;;;12.23;3.30;;;19.50;99.90;;;;;;5045255;28;20943;-89
2021/10/02 10:44:57;;;;;;;9.90;3.50;;;19.50;99.90;;;;;;5043781;28;20390;-88
2021/10/02 10:47:26;;;;;;;8.88;2.78;;;19.60;99.90;;;;;;5048508;28;20419;-87
2021/10/02 10:49:52;;;;;;;11.68;3.15;;;19.60;99.90;;;;;;5044044;28;20494;-88
2021/10/02 10:52:19;;;;;;;7.80;2.67;;;19.50;99.90;;;;;;5060389;28;20372;-88
2021/10/02 10:54:51;;;;;;;6.20;2.70;;;19.70;99.90;;;;;;5042953;28;21013;-88
2021/10/02 10:57:40;;;;;;;4.20;2.42;;;19.80;99.90;;;;;;5047586;28;20889;-89
2021/10/02 11:00:13;;;;;;;5.10;2.58;;;19.80;99.90;;;;;;5040014;28;20386;-85
2021/10/02 11:02:52;;;;;;;12.40;3.20;;;19.70;99.90;;;;;;5047358;28;20903;-84
2021/10/02 11:05:36;;;;;;;4.50;2.70;;;19.70;99.90;;;;;;5058992;28;20378;-88
2021/10/02 11:08:06;;;;;;;8.85;2.80;;;19.80;99.90;;;;;;5042862;28;20390;-89
2021/10/02 11:10:45;;;;;;;3.85;2.60;;;19.80;99.90;;;;;;5045146;28;20412;-88
2021/10/02 11:13:14;;;;;;;8.00;2.40;;;19.90;99.90;;;;;;5041304;28;20386;-86
2021/10/02 11:15:40;;;;;;;5.57;2.20;;;19.90;99.90;;;;;;5049623;28;20428;-88
2021/10/02 11:18:26;;;;;;;5.07;2.53;;;20.00;99.90;;;;;;5054566;28;20699;-88
2021/10/02 11:21:02;;;;;;;4.00;2.15;;;19.90;99.90;;;;;;5053977;28;20389;-87
2021/10/02 11:23:54;;;;;;;3.25;2.03;;;20.00;99.90;;;;;;5055088;28;20395;-84
2021/10/02 11:26:36;;;;;;;4.45;2.15;;;19.90;99.90;;;;;;5072772;28;20386;-88
2021/10/02 11:29:02;;;;;;;6.13;2.40;;;19.90;99.90;;;;;;5034293;28;20475;-82
2021/10/02 11:31:29;;;;;;;3.83;1.80;;;19.90;99.90;;;;;;5052453;28;20541;-88
2021/10/02 11:34:00;;;;;;;3.92;2.15;;;20.00;99.90;;;;;;5034368;28;20384;-88
2021/10/02 11:36:39;;;;;;;6.40;2.03;;;20.00;99.90;;;;;;5052568;28;20461;-88
2021/10/02 11:39:21;;;;;;;3.30;2.05;;;20.00;99.90;;;;;;5034482;28;20546;-87
2021/10/02 11:41:59;;;;;;;3.95;2.08;;;20.00;99.90;;;;;;5041599;28;20459;-87
2021/10/02 11:44:35;;;;;;;4.30;2.17;;;20.10;99.90;;;;;;5053846;28;20840;-87
2021/10/02 11:47:34;;;;;;;6.03;2.20;;;20.00;99.90;;;;;;5044196;28;20391;-88
2021/10/02 11:50:15;;;;;;;3.88;2.15;;;20.10;99.90;;;;;;5054391;28;20799;-87
2021/10/02 11:52:43;;;;;;;9.27;2.38;;;20.20;99.90;;;;;;5050518;28;22073;-86
2021/10/02 11:55:35;;;;;;;3.95;1.98;;;20.30;99.90;;;;;;5033625;28;20395;-86
2021/10/02 11:58:06;;;;;;;4.05;2.00;;;20.30;99.90;;;;;;5050749;28;20448;-86
2021/10/02 12:00:34;;;;;;;4.05;2.05;;;20.30;99.90;;;;;;5033798;28;20569;-87
2021/10/02 12:03:02;;;;;;;3.45;1.90;;;20.20;99.90;;;;;;5032258;28;20369;-87
2021/10/02 12:05:27;;;;;;;3.30;1.67;;;20.30;99.90;;;;;;5013966;28;20721;-85
2021/10/02 12:07:54;;;;;;;8.73;2.00;;;20.40;99.90;;;;;;5031359;28;20413;-86
2021/10/02 12:10:19;;;;;;;3.33;1.77;;;20.20;99.90;;;;;;5013203;28;20488;-87
2021/10/02 12:12:45;;;;;;;4.00;1.87;;;20.20;99.90;;;;;;5013432;28;20468;-88
2021/10/02 12:15:33;;;;;;;3.97;2.03;;;20.20;99.90;;;;;;5014052;28;20402;-86
2021/10/02 12:17:59;;;;;;;3.42;1.80;;;20.40;99.90;;;;;;5029747;28;20396;-88
2021/10/02 12:20:43;;;;;;;21.48;3.28;;;20.40;99.90;;;;;;5031457;28;20453;-85
2021/10/02 12:23:12;;;;;;;3.20;1.73;;;20.60;99.90;;;;;;5036786;28;20470;-85
2021/10/02 12:25:39;;;;;;;8.00;2.17;;;20.80;99.90;;;;;;5050988;28;21221;-88
2021/10/02 12:28:06;;;;;;;5.05;1.90;;;21.00;99.90;;;;;;5032739;28;20375;-87
2021/10/02 12:30:32;;;;;;;5.55;1.80;;;21.00;99.90;;;;;;5032836;28;20758;-87
2021/10/02 12:33:03;;;;;;;3.63;1.50;;;21.00;99.90;;;;;;5050992;28;20380;-85
2021/10/02 12:35:30;;;;;;;4.33;1.73;;;21.10;99.90;;;;;;5032873;28;20948;-85
2021/10/02 12:37:56;;;;;;;3.40;1.83;;;21.00;99.90;;;;;;5050645;28;20862;-88
2021/10/02 12:40:24;;;;;;;6.32;2.30;;;21.20;99.90;;;;;;5033296;28;20382;-89
2021/10/02 12:42:59;;;;;;;3.95;1.83;;;21.20;99.90;;;;;;5057355;28;20382;-84
2021/10/02 12:45:29;;;;;;;8.15;2.28;;;21.00;99.90;;;;;;5052880;28;20393;-86
2021/10/02 12:48:01;;;;;;;11.05;2.33;;;21.00;99.90;;;;;;5052676;28;20457;-86
2021/10/02 12:50:37;;;;;;;2.20;1.77;;;21.00;99.90;;;;;;5071017;28;20416;-86
2021/10/02 12:53:04;;;;;;;8.50;2.30;;;21.00;99.90;;;;;;5047594;28;20402;-87
2021/10/02 12:55:30;;;;;;;3.47;1.90;;;21.00;99.90;;;;;;5032236;28;20400;-86
2021/10/02 12:58:12;;;;;;;2.70;1.90;;;21.00;99.90;;;;;;5050648;28;20384;-88
2021/10/02 13:00:38;;;;;;;6.70;1.98;;;21.00;99.90;;;;;;5051042;28;20469;-85
2021/10/02 13:03:04;;;;;;;7.57;2.17;;;21.10;99.90;;;;;;5032763;28;21268;-85
2021/10/02 13:05:34;;;;;;;9.10;2.15;;;21.00;99.90;;;;;;5032567;28;20387;-88
2021/10/02 13:08:19;;;;;;;3.17;2.13;;;20.90;99.90;;;;;;5032183;28;20379;-88
2021/10/02 13:10:45;;;;;;;4.70;2.00;;;20.90;99.90;;;;;;5034286;28;20419;-88
2021/10/02 13:13:19;;;;;;;5.13;2.00;;;20.80;99.90;;;;;;5054135;28;20868;-87
2021/10/02 13:15:50;;;;;;;3.57;1.90;;;20.60;99.90;;;;;;5036278;28;20376;-88
2021/10/02 13:18:43;;;;;;;7.47;2.40;;;20.50;99.90;;;;;;5036832;28;20474;-86
2021/10/02 13:21:17;;;;;;;6.72;2.30;;;20.40;99.90;;;;;;5054732;28;20402;-88
2021/10/02 13:23:46;;;;;;;4.45;2.25;;;20.30;99.90;;;;;;5036594;28;20415;-88
2021/10/02 13:26:20;;;;;;;5.75;2.20;;;20.50;99.90;;;;;;5036703;28;20380;-87
2021/10/02 13:31:40;;;;;;;7.80;2.53;;;20.60;99.90;;;;;;5063804;28;20401;-86
2021/10/02 13:34:07;;;;;;;4.72;1.88;;;20.80;99.90;;;;;;5047869;28;20875;-86
2021/10/02 13:36:38;;;;;;;5.18;1.90;;;20.80;99.90;;;;;;5043542;28;20396;-87
2021/10/02 13:39:14;;;;;;;5.43;1.80;;;20.80;99.90;;;;;;5044002;28;20382;-87
2021/10/02 13:41:52;;;;;;;4.97;2.40;;;20.90;99.90;;;;;;5063981;28;20467;-86
2021/10/02 13:44:31;;;;;;;3.05;1.90;;;21.20;99.90;;;;;;5040674;28;20395;-86
2021/10/02 13:47:00;;;;;;;12.40;2.28;;;21.30;99.90;;;;;;5047906;28;20436;-87
2021/10/02 13:49:32;;;;;;;8.05;2.10;;;21.40;99.90;;;;;;5048389;28;20744;-86
2021/10/02 13:52:05;;;;;;;8.77;2.10;;;21.40;99.90;;;;;;5046658;28;20392;-85
2021/10/02 13:54:31;;;;;;;3.33;1.77;;;21.20;99.90;;;;;;5062196;28;20391;-87
2021/10/02 13:56:58;;;;;;;5.65;2.00;;;21.10;99.90;;;;;;5063968;28;20403;-85
2021/10/02 13:59:23;;;;;;;3.77;1.80;;;21.00;99.90;;;;;;5042443;28;20379;-85
2021/10/02 14:01:49;;;;;;;10.38;2.50;;;21.00;99.90;;;;;;5045058;28;20373;-84
2021/10/02 14:04:15;;;;;;;3.20;2.10;;;20.80;99.90;;;;;;5063983;28;20377;-86
2021/10/02 14:06:40;;;;;;;3.80;2.00;;;20.70;99.90;;;;;;5064251;28;20395;-86
2021/10/02 14:09:09;;;;;;;4.53;1.77;;;20.60;99.90;;;;;;5044570;28;20515;-87
2021/10/02 14:11:40;;;;;;;5.10;1.92;;;20.70;99.90;;;;;;5041120;28;20963;-86
2021/10/02 14:14:08;;;;;;;6.78;2.10;;;20.70;99.90;;;;;;5062767;28;20745;-87